Terminal Aerodrome Forecast
Issued by NWS Charleston, WV

Current Version | Previous Version | Text Only | Print | Product List | Glossary Off
Versions: 1 2 3 4 5 6 7 8 9 10 11 12 13 14 15 16 17 18 19 20 21 22 23 24 25

000
FTUS41 KRLX 142324
TAFHTS
TAF
KHTS 142324Z 1500/1524 00000KT P6SM OVC050
     FM150400 00000KT 4SM BR OVC030
     FM150600 00000KT 2SM BR BKN025
     FM150900 00000KT 3SM BR BKN011
     FM151000 00000KT 2SM BR BKN006
     FM151400 00000KT 4SM BR BKN013
     FM151600 00000KT P6SM SCT024
     FM152300 VRB03KT P6SM SCT040=

USA.gov is the U.S. government's official web portal to all federal, state and local government web resources and services.